createdAt,value
2023-04-12T00:00:10.623Z,34.45
2023-04-12T00:03:03.199Z,32.38
2023-04-12T00:05:31.628Z,33.05
2023-04-12T00:08:02.138Z,32.30
2023-04-12T00:10:31.882Z,37.28
2023-04-12T00:13:00.287Z,32.95
2023-04-12T00:15:28.915Z,32.38
2023-04-12T00:17:57.388Z,29.23
2023-04-12T00:20:25.728Z,28.02
2023-04-12T00:22:54.738Z,35.78
2023-04-12T00:25:23.013Z,29.88
2023-04-12T00:27:52.788Z,34.40
2023-04-12T00:30:21.047Z,33.85
2023-04-12T00:32:49.840Z,30.48
2023-04-12T00:35:18.179Z,28.80
2023-04-12T00:37:46.571Z,26.60
2023-04-12T00:40:14.872Z,31.05
2023-04-12T00:42:43.255Z,28.95
2023-04-12T00:45:13.070Z,30.27
2023-04-12T00:47:43.313Z,30.05
2023-04-12T00:50:12.745Z,35.83
2023-04-12T00:52:41.535Z,26.42
2023-04-12T00:55:10.603Z,30.30
2023-04-12T00:57:40.369Z,34.63
2023-04-12T01:00:11.518Z,25.98
2023-04-12T01:02:42.559Z,37.13
2023-04-12T01:05:14.698Z,27.85
2023-04-12T01:07:51.522Z,37.03
2023-04-12T01:10:28.792Z,40.13
2023-04-12T01:13:05.359Z,36.97
2023-04-12T01:15:35.762Z,41.17
2023-04-12T01:18:09.712Z,42.55
2023-04-12T01:20:44.500Z,40.17
2023-04-12T01:23:46.356Z,46.78
2023-04-12T01:26:33.315Z,44.17
2023-04-12T01:29:04.547Z,50.72
2023-04-12T01:31:33.126Z,45.70
2023-04-12T01:34:03.157Z,42.33
2023-04-12T01:36:31.642Z,40.53
2023-04-12T01:39:00.892Z,44.45
2023-04-12T01:41:29.464Z,46.53
2023-04-12T01:43:58.135Z,35.70
2023-04-12T01:46:27.988Z,39.88
2023-04-12T01:48:57.097Z,44.55
2023-04-12T01:51:35.982Z,39.60
2023-04-12T01:54:11.312Z,41.65
2023-04-12T01:56:41.365Z,39.05
2023-04-12T01:59:11.279Z,39.45
2023-04-12T02:01:40.892Z,38.28
2023-04-12T02:04:09.841Z,35.90
2023-04-12T02:06:38.206Z,33.25
2023-04-12T02:09:06.858Z,49.08
2023-04-12T02:11:35.485Z,33.22
2023-04-12T02:14:03.849Z,32.78
2023-04-12T02:16:32.422Z,35.25
2023-04-12T02:19:02.542Z,38.13
2023-04-12T02:21:30.870Z,33.92
2023-04-12T02:23:59.639Z,33.33
2023-04-12T02:26:28.006Z,34.28
2023-04-12T02:28:56.646Z,30.27
2023-04-12T02:31:25.447Z,30.38
2023-04-12T02:33:54.147Z,27.85
2023-04-12T02:36:23.745Z,30.67
2023-04-12T02:38:52.278Z,27.13
2023-04-12T02:41:20.516Z,28.77
2023-04-12T02:43:49.285Z,29.95
2023-04-12T02:46:19.785Z,27.88
2023-04-12T02:48:48.750Z,27.30
2023-04-12T02:51:17.003Z,30.63
2023-04-12T02:53:46.935Z,30.02
2023-04-12T02:56:15.684Z,30.17
2023-04-12T02:58:44.220Z,30.23
2023-04-12T03:01:13.231Z,25.25
2023-04-12T03:03:41.966Z,31.67
2023-04-12T03:06:10.783Z,30.20
2023-04-12T03:08:39.741Z,29.90
2023-04-12T03:11:09.385Z,28.33
2023-04-12T03:13:37.731Z,25.55
2023-04-12T03:16:22.378Z,29.17
2023-04-12T03:18:51.641Z,23.42
2023-04-12T03:21:19.792Z,27.02
2023-04-12T03:23:48.196Z,24.13
2023-04-12T03:26:20.368Z,25.58
2023-04-12T03:28:49.092Z,24.40
2023-04-12T03:31:21.520Z,26.42
2023-04-12T03:33:49.973Z,25.15
2023-04-12T03:36:18.227Z,22.88
2023-04-12T03:38:46.582Z,24.05
2023-04-12T03:41:15.260Z,24.67
2023-04-12T03:43:45.285Z,23.58
2023-04-12T03:46:15.512Z,23.30
2023-04-12T03:48:44.221Z,22.63
2023-04-12T03:51:13.004Z,19.83
2023-04-12T03:53:41.476Z,23.17
2023-04-12T03:56:10.169Z,24.50
2023-04-12T03:58:38.638Z,18.80
2023-04-12T04:01:09.296Z,20.23
2023-04-12T04:03:38.104Z,23.58
2023-04-12T04:06:06.946Z,22.48
2023-04-12T04:08:35.358Z,23.67
2023-04-12T04:11:03.476Z,18.90
2023-04-12T04:13:31.857Z,23.70
2023-04-12T04:16:03.146Z,18.63
2023-04-12T04:18:34.717Z,20.63
2023-04-12T04:21:02.901Z,20.77
2023-04-12T04:23:38.856Z,18.60
2023-04-12T04:26:10.425Z,19.40
2023-04-12T04:28:39.376Z,20.55
2023-04-12T04:31:07.631Z,17.70
2023-04-12T04:33:37.628Z,21.10
2023-04-12T04:36:07.213Z,17.17
2023-04-12T04:38:35.622Z,16.48
2023-04-12T04:41:04.448Z,22.38
2023-04-12T04:43:34.172Z,18.90
2023-04-12T04:46:02.456Z,24.02
2023-04-12T04:48:30.986Z,20.40
2023-04-12T04:51:01.718Z,18.08
2023-04-12T04:53:30.122Z,38.03
2023-04-12T04:56:01.340Z,17.30
2023-04-12T04:58:29.745Z,26.90
2023-04-12T05:00:59.524Z,21.83
2023-04-12T05:03:30.537Z,19.95
2023-04-12T05:06:00.683Z,14.32
2023-04-12T05:08:29.657Z,18.83
2023-04-12T05:10:58.276Z,21.02
2023-04-12T05:13:26.835Z,20.02
2023-04-12T05:15:55.027Z,21.88
2023-04-12T05:18:23.423Z,14.43
2023-04-12T05:20:51.538Z,18.48
2023-04-12T05:23:21.795Z,18.20
2023-04-12T05:25:49.989Z,16.70
2023-04-12T05:28:18.586Z,21.83
2023-04-12T05:30:46.911Z,19.40
2023-04-12T05:33:15.744Z,17.23
2023-04-12T05:35:44.020Z,19.15
2023-04-12T05:38:12.408Z,22.67
2023-04-12T05:40:44.016Z,23.30
2023-04-12T05:43:13.496Z,39.78
2023-04-12T05:45:42.176Z,18.38
2023-04-12T05:48:10.892Z,20.90
2023-04-12T05:50:39.363Z,28.85
2023-04-12T05:53:08.175Z,31.75
2023-04-12T05:55:38.086Z,22.45
2023-04-12T05:58:08.055Z,29.60
2023-04-12T06:00:36.952Z,25.45
2023-04-12T06:03:05.562Z,23.95
2023-04-12T06:05:35.568Z,20.75
2023-04-12T06:08:05.272Z,26.63
2023-04-12T06:10:33.953Z,24.98
2023-04-12T06:13:02.348Z,23.67
2023-04-12T06:15:32.077Z,22.08
2023-04-12T06:18:00.817Z,27.35
2023-04-12T06:20:29.412Z,23.42
2023-04-12T06:22:57.929Z,22.70
2023-04-12T06:25:26.553Z,22.42
2023-04-12T06:27:55.127Z,22.85
2023-04-12T06:30:23.364Z,20.42
2023-04-12T06:32:53.250Z,23.25
2023-04-12T06:35:21.741Z,25.92
2023-04-12T06:37:50.402Z,20.52
2023-04-12T06:40:18.686Z,21.00
2023-04-12T06:42:47.159Z,19.10
2023-04-12T06:45:15.417Z,23.38
2023-04-12T06:47:43.783Z,26.02
2023-04-12T06:50:13.638Z,19.13
2023-04-12T06:52:42.147Z,20.98
2023-04-12T06:55:10.838Z,21.13
2023-04-12T06:57:39.219Z,21.30
2023-04-12T07:00:08.886Z,27.38
2023-04-12T07:02:38.615Z,19.67
2023-04-12T07:05:07.876Z,18.42
2023-04-12T07:07:37.602Z,22.08
2023-04-12T07:10:07.040Z,20.02
2023-04-12T07:12:35.912Z,19.70
2023-04-12T07:15:04.205Z,25.38
2023-04-12T07:17:32.621Z,25.02
2023-04-12T07:20:01.108Z,31.52
2023-04-12T07:22:29.538Z,19.67
2023-04-12T07:24:59.197Z,23.20
2023-04-12T07:27:27.835Z,24.88
2023-04-12T07:29:57.997Z,21.85
2023-04-12T07:32:27.245Z,24.50
2023-04-12T07:34:55.777Z,25.60
2023-04-12T07:37:24.276Z,23.98
2023-04-12T07:39:52.946Z,25.65
2023-04-12T07:42:23.075Z,25.60
2023-04-12T07:44:51.178Z,21.17
2023-04-12T07:47:19.639Z,31.77
2023-04-12T07:49:48.207Z,31.10
2023-04-12T07:52:16.727Z,26.00
2023-04-12T07:54:44.916Z,27.73
2023-04-12T07:57:13.326Z,21.63
2023-04-12T07:59:42.864Z,25.60
2023-04-12T08:02:11.330Z,23.10
2023-04-12T08:04:41.980Z,29.50
2023-04-12T08:07:10.609Z,24.20
2023-04-12T08:09:38.837Z,22.73
2023-04-12T08:12:07.811Z,24.48
2023-04-12T08:14:36.081Z,23.35
2023-04-12T08:17:06.242Z,29.92
2023-04-12T08:19:35.097Z,28.50
2023-04-12T08:22:04.375Z,25.42
2023-04-12T08:24:32.672Z,20.45
2023-04-12T08:27:01.775Z,22.90
2023-04-12T08:29:30.043Z,23.40
2023-04-12T08:32:00.758Z,20.83
2023-04-12T08:34:30.562Z,22.00
2023-04-12T08:37:00.622Z,24.98
2023-04-12T08:39:28.745Z,27.33
2023-04-12T08:41:58.200Z,20.58
2023-04-12T08:44:36.515Z,21.98
2023-04-12T08:47:06.119Z,19.98
2023-04-12T08:49:36.423Z,20.77
2023-04-12T08:52:06.957Z,27.23
2023-04-12T08:54:36.032Z,20.02
2023-04-12T08:57:06.545Z,18.17
2023-04-12T08:59:39.193Z,22.08
2023-04-12T09:02:07.885Z,19.20
2023-04-12T09:04:48.818Z,23.65
2023-04-12T09:07:17.652Z,17.35
2023-04-12T09:09:46.876Z,17.25
2023-04-12T09:12:16.352Z,23.80
2023-04-12T09:14:44.943Z,15.77
2023-04-12T09:17:23.953Z,14.45
2023-04-12T09:19:55.881Z,14.63
2023-04-12T09:25:02.472Z,18.05
2023-04-12T09:27:30.946Z,15.30
2023-04-12T09:30:09.058Z,13.32
2023-04-12T09:32:37.723Z,19.17
2023-04-12T09:35:08.516Z,17.30
2023-04-12T09:37:36.986Z,16.13
2023-04-12T09:40:06.498Z,13.95
2023-04-12T09:42:36.154Z,16.15
2023-04-12T09:45:21.623Z,15.13
2023-04-12T09:47:50.855Z,14.18
2023-04-12T09:50:23.996Z,11.80
2023-04-12T09:52:53.356Z,16.20
2023-04-12T09:55:22.932Z,15.35
2023-04-12T09:57:52.708Z,14.40
2023-04-12T10:00:25.400Z,10.35
2023-04-12T10:02:55.929Z,10.05
2023-04-12T10:05:27.412Z,7.30
2023-04-12T10:07:57.324Z,8.48
2023-04-12T10:10:26.068Z,8.05
2023-04-12T10:12:54.775Z,6.07
2023-04-12T10:15:23.445Z,7.65
2023-04-12T10:17:53.664Z,11.43
2023-04-12T10:20:24.763Z,8.77
2023-04-12T10:22:56.315Z,10.80
2023-04-12T10:25:26.878Z,7.35
2023-04-12T10:27:55.497Z,10.55
2023-04-12T10:30:25.401Z,10.38
2023-04-12T10:33:13.738Z,6.88
2023-04-12T10:35:53.350Z,7.38
2023-04-12T10:38:25.075Z,6.40
2023-04-12T10:41:17.939Z,9.05
2023-04-12T10:43:47.105Z,4.75
2023-04-12T10:46:51.223Z,5.78
2023-04-12T10:49:20.152Z,6.50
2023-04-12T10:52:13.433Z,9.05
2023-04-12T10:54:43.733Z,10.43
2023-04-12T10:57:43.350Z,6.43
2023-04-12T11:00:13.040Z,5.88
2023-04-12T11:03:13.011Z,9.65
2023-04-12T11:06:06.442Z,5.97
2023-04-12T11:08:41.140Z,4.78
2023-04-12T11:11:22.658Z,7.00
2023-04-12T11:13:56.974Z,3.80
2023-04-12T11:16:25.684Z,4.32
2023-04-12T11:18:55.682Z,5.13
2023-04-12T11:21:24.792Z,8.73
2023-04-12T11:23:54.606Z,5.72
2023-04-12T11:26:25.675Z,6.68
2023-04-12T11:28:55.853Z,5.35
2023-04-12T11:31:24.839Z,5.63
2023-04-12T11:33:53.585Z,3.53
2023-04-12T11:36:22.340Z,7.05
2023-04-12T11:38:51.143Z,3.92
2023-04-12T11:41:19.719Z,3.47
2023-04-12T11:43:49.663Z,5.65
2023-04-12T11:46:18.623Z,3.40
2023-04-12T11:48:47.776Z,3.08
2023-04-12T11:51:24.851Z,3.42
2023-04-12T11:53:57.340Z,2.75
2023-04-12T11:56:26.406Z,4.35
2023-04-12T11:58:56.145Z,5.70
2023-04-12T12:01:25.635Z,4.53
2023-04-12T12:03:54.555Z,3.97
2023-04-12T12:06:24.519Z,13.48
2023-04-12T12:08:53.712Z,7.05
2023-04-12T12:11:23.473Z,5.90
2023-04-12T12:13:52.745Z,7.00
2023-04-12T12:16:28.771Z,4.30
2023-04-12T12:18:58.363Z,3.47
2023-04-12T12:21:28.592Z,7.60
2023-04-12T12:23:58.844Z,4.45
2023-04-12T12:26:29.170Z,4.43
2023-04-12T12:29:00.467Z,4.53
2023-04-12T12:31:31.202Z,3.35
2023-04-12T12:34:01.094Z,5.18
2023-04-12T12:36:34.316Z,9.25
2023-04-12T12:39:09.957Z,5.72
2023-04-12T12:41:39.063Z,6.38
2023-04-12T12:44:08.214Z,4.28
2023-04-12T12:49:09.793Z,5.80
2023-04-12T12:51:38.313Z,8.40
2023-04-12T12:54:07.731Z,5.10
2023-04-12T12:56:37.075Z,7.18
2023-04-12T12:59:05.604Z,5.55
2023-04-12T13:01:34.212Z,6.55
2023-04-12T13:04:04.384Z,5.30
2023-04-12T13:06:33.073Z,5.60
2023-04-12T13:09:01.482Z,4.43
2023-04-12T13:11:30.205Z,6.40
2023-04-12T13:13:58.509Z,9.18
2023-04-12T13:16:27.248Z,5.15
2023-04-12T13:18:57.323Z,4.65
2023-04-12T13:21:27.441Z,8.00
2023-04-12T13:23:55.748Z,5.50
2023-04-12T13:26:25.639Z,7.43
2023-04-12T13:28:54.031Z,5.18
2023-04-12T13:31:22.477Z,5.47
2023-04-12T13:33:50.950Z,7.93
2023-04-12T13:36:19.667Z,8.60
2023-04-12T13:38:49.401Z,7.15
2023-04-12T13:41:19.107Z,5.45
2023-04-12T13:43:47.500Z,7.20
2023-04-12T13:46:16.039Z,6.70
2023-04-12T13:48:44.367Z,4.35
2023-04-12T13:51:12.971Z,3.42
2023-04-12T13:53:41.325Z,6.57
2023-04-12T13:56:12.006Z,4.53
2023-04-12T13:58:40.624Z,7.55
2023-04-12T14:01:09.272Z,8.15
2023-04-12T14:03:38.303Z,4.88
2023-04-12T14:06:07.849Z,7.00
2023-04-12T14:08:36.138Z,6.90
2023-04-12T14:11:05.076Z,3.67
2023-04-12T14:13:34.763Z,3.63
2023-04-12T14:16:03.777Z,4.57
2023-04-12T14:18:32.331Z,6.28
2023-04-12T14:21:00.941Z,4.32
2023-04-12T14:23:30.754Z,3.58
2023-04-12T14:25:59.442Z,4.60
2023-04-12T14:28:30.826Z,3.97
2023-04-12T14:31:03.086Z,3.92
2023-04-12T14:33:33.417Z,3.78
2023-04-12T14:36:05.095Z,7.30
2023-04-12T14:38:33.549Z,3.58
2023-04-12T14:41:02.438Z,3.35
2023-04-12T14:43:30.714Z,5.75
2023-04-12T14:46:00.641Z,4.18
2023-04-12T14:48:29.005Z,3.60
2023-04-12T14:50:57.822Z,6.07
2023-04-12T14:53:26.061Z,2.80
2023-04-12T14:55:54.642Z,5.53
2023-04-12T14:58:23.040Z,4.30
2023-04-12T15:00:51.733Z,4.95
2023-04-12T15:03:21.742Z,9.07
2023-04-12T15:05:50.395Z,7.72
2023-04-12T15:08:18.577Z,3.60
2023-04-12T15:10:47.653Z,3.42
2023-04-12T15:13:15.870Z,3.78
2023-04-12T15:15:47.280Z,5.18
2023-04-12T15:18:16.258Z,6.40
2023-04-12T15:20:46.243Z,5.95
2023-04-12T15:23:14.418Z,3.15
2023-04-12T15:25:43.143Z,6.90
2023-04-12T15:28:11.327Z,3.63
2023-04-12T15:30:40.075Z,3.92
2023-04-12T15:33:08.489Z,6.20
2023-04-12T15:35:37.171Z,6.22
2023-04-12T15:38:06.887Z,3.65
2023-04-12T15:40:35.402Z,4.85
2023-04-12T15:43:03.725Z,6.55
2023-04-12T15:45:32.374Z,4.15
2023-04-12T15:48:00.662Z,4.20
2023-04-12T15:50:29.133Z,6.28
2023-04-12T15:52:59.239Z,4.75
2023-04-12T15:55:29.130Z,4.85
2023-04-12T15:57:57.370Z,6.15
2023-04-12T16:00:26.817Z,5.30
2023-04-12T16:02:56.295Z,7.80
2023-04-12T16:05:26.526Z,4.72
2023-04-12T16:07:56.783Z,9.02
2023-04-12T16:10:25.371Z,7.13
2023-04-12T16:12:56.476Z,5.82
2023-04-12T16:15:25.018Z,4.97
2023-04-12T16:17:54.491Z,8.50
2023-04-12T16:20:24.269Z,6.95
2023-04-12T16:22:55.039Z,5.90
2023-04-12T16:25:24.201Z,6.05
2023-04-12T16:27:52.442Z,8.43
2023-04-12T16:30:22.791Z,6.97
2023-04-12T16:32:52.171Z,8.73
2023-04-12T16:35:21.294Z,10.07
2023-04-12T16:37:49.749Z,9.25
2023-04-12T16:40:18.421Z,12.00
2023-04-12T16:42:46.741Z,8.45
2023-04-12T16:45:16.026Z,8.35
2023-04-12T16:47:47.482Z,7.13
2023-04-12T16:50:16.630Z,9.13
2023-04-12T16:52:45.079Z,9.23
2023-04-12T16:55:14.431Z,6.78
2023-04-12T16:57:44.369Z,6.18
2023-04-12T17:00:20.547Z,14.30
2023-04-12T17:02:52.806Z,9.18
2023-04-12T17:05:22.448Z,8.55
2023-04-12T17:07:53.567Z,9.60
2023-04-12T17:10:23.664Z,8.75
2023-04-12T17:12:53.273Z,6.80
2023-04-12T17:15:22.910Z,11.65
2023-04-12T17:17:53.482Z,9.80
2023-04-12T17:20:23.300Z,9.82
2023-04-12T17:22:52.142Z,11.18
2023-04-12T17:25:22.307Z,10.40
2023-04-12T17:27:52.534Z,10.27
2023-04-12T17:30:21.124Z,10.18
2023-04-12T17:32:49.600Z,12.48
2023-04-12T17:35:20.601Z,10.10
2023-04-12T17:37:49.050Z,11.40
2023-04-12T17:40:17.549Z,11.35
2023-04-12T17:42:45.783Z,10.45
2023-04-12T17:45:14.768Z,13.07
2023-04-12T17:47:43.878Z,13.30
2023-04-12T17:50:13.377Z,14.77
2023-04-12T17:52:42.917Z,23.15
2023-04-12T17:55:12.395Z,24.05
2023-04-12T17:57:41.158Z,20.20
2023-04-12T18:00:11.702Z,23.42
2023-04-12T18:02:40.779Z,23.17
2023-04-12T18:05:10.211Z,23.55
2023-04-12T18:07:39.908Z,22.38
2023-04-12T18:10:12.597Z,25.25
2023-04-12T18:12:41.217Z,22.50
2023-04-12T18:15:11.020Z,26.52
2023-04-12T18:17:40.868Z,19.27
2023-04-12T18:20:11.510Z,21.25
2023-04-12T18:22:40.022Z,23.50
2023-04-12T18:25:11.667Z,25.15
2023-04-12T18:27:39.918Z,22.20
2023-04-12T18:30:09.608Z,20.40
2023-04-12T18:32:38.176Z,29.52
2023-04-12T18:35:08.006Z,28.30
2023-04-12T18:37:38.064Z,48.47
2023-04-12T18:40:08.400Z,43.08
2023-04-12T18:42:38.526Z,38.45
2023-04-12T18:45:08.855Z,42.95
2023-04-12T18:47:39.079Z,36.83
2023-04-12T18:50:09.095Z,34.42
2023-04-12T18:52:37.629Z,34.53
2023-04-12T18:55:07.394Z,31.88
2023-04-12T18:57:36.445Z,32.88
2023-04-12T19:00:13.520Z,33.83
2023-04-12T19:02:42.199Z,46.40
2023-04-12T19:05:12.081Z,43.08
2023-04-12T19:07:40.823Z,46.00
2023-04-12T19:10:10.113Z,43.28
2023-04-12T19:12:38.312Z,41.80
2023-04-12T19:15:09.871Z,31.30
2023-04-12T19:17:39.111Z,31.53
2023-04-12T19:20:09.208Z,33.83
2023-04-12T19:22:37.658Z,31.98
2023-04-12T19:25:07.179Z,32.90
2023-04-12T19:27:35.442Z,28.77
2023-04-12T19:30:04.636Z,34.40
2023-04-12T19:32:34.558Z,29.95
2023-04-12T19:35:03.197Z,27.20
2023-04-12T19:37:34.094Z,38.35
2023-04-12T19:40:03.365Z,28.60
2023-04-12T19:42:31.751Z,30.58
2023-04-12T19:45:00.688Z,35.33
2023-04-12T19:47:28.939Z,31.23
2023-04-12T19:49:59.487Z,33.95
2023-04-12T19:52:28.585Z,30.80
2023-04-12T19:54:57.183Z,31.42
2023-04-12T19:57:25.555Z,32.35
2023-04-12T19:59:54.024Z,37.00
2023-04-12T20:02:22.345Z,34.78
2023-04-12T20:04:51.244Z,34.45
2023-04-12T20:07:20.790Z,41.05
2023-04-12T20:09:49.382Z,36.95
2023-04-12T20:12:18.939Z,36.70
2023-04-12T20:14:47.595Z,40.35
2023-04-12T20:17:16.163Z,37.78
2023-04-12T20:19:44.546Z,46.20
2023-04-12T20:22:13.558Z,43.85
2023-04-12T20:24:43.676Z,40.38
2023-04-12T20:27:16.852Z,43.28
2023-04-12T20:29:46.574Z,41.42
2023-04-12T20:32:15.381Z,47.78
2023-04-12T20:34:46.814Z,48.67
2023-04-12T20:37:15.647Z,43.70
2023-04-12T20:39:45.490Z,49.30
2023-04-12T20:42:16.251Z,48.40
2023-04-12T20:44:45.307Z,56.00
2023-04-12T20:47:13.417Z,50.00
2023-04-12T20:49:42.433Z,52.75
2023-04-12T20:52:10.919Z,48.50
2023-04-12T20:54:39.341Z,53.10
2023-04-12T20:57:09.524Z,56.70
2023-04-12T20:59:38.386Z,54.60
2023-04-12T21:02:06.576Z,59.05
2023-04-12T21:04:36.281Z,59.17
2023-04-12T21:07:05.942Z,66.60
2023-04-12T21:09:34.337Z,65.53
2023-04-12T21:12:06.071Z,66.05
2023-04-12T21:14:37.671Z,67.07
2023-04-12T21:17:07.212Z,66.88
2023-04-12T21:19:40.955Z,70.40
2023-04-12T21:22:09.579Z,62.20
2023-04-12T21:24:38.813Z,67.30
2023-04-12T21:27:08.308Z,65.45
2023-04-12T21:29:41.382Z,64.85
2023-04-12T21:32:10.737Z,62.28
2023-04-12T21:34:39.211Z,58.45
2023-04-12T21:37:07.648Z,65.28
2023-04-12T21:39:36.241Z,61.85
2023-04-12T21:42:04.514Z,58.50
2023-04-12T21:44:32.939Z,69.55
2023-04-12T21:47:02.492Z,68.80
2023-04-12T21:49:31.446Z,65.07
2023-04-12T21:51:59.585Z,63.70
2023-04-12T21:54:28.923Z,67.93
2023-04-12T21:56:57.345Z,69.07
2023-04-12T21:59:26.778Z,65.38
2023-04-12T22:01:55.130Z,71.82
2023-04-12T22:04:25.045Z,67.15
2023-04-12T22:06:53.196Z,68.80
2023-04-12T22:09:21.713Z,64.13
2023-04-12T22:11:50.140Z,73.45
2023-04-12T22:14:18.722Z,73.32
2023-04-12T22:16:47.009Z,72.40
2023-04-12T22:19:16.323Z,78.80
2023-04-12T22:21:48.513Z,75.35
2023-04-12T22:24:17.774Z,75.82
2023-04-12T22:26:45.909Z,76.28
2023-04-12T22:29:17.637Z,76.97
2023-04-12T22:31:46.921Z,74.37
2023-04-12T22:34:15.492Z,77.50
2023-04-12T22:36:46.669Z,84.00
2023-04-12T22:39:15.634Z,81.50
2023-04-12T22:41:49.682Z,80.50
2023-04-12T22:44:18.351Z,74.35
2023-04-12T22:46:48.140Z,83.07
2023-04-12T22:49:17.031Z,72.07
2023-04-12T22:51:46.537Z,75.00
2023-04-12T22:54:14.956Z,75.10
2023-04-12T22:56:45.035Z,80.25
2023-04-12T22:59:14.314Z,72.10
2023-04-12T23:01:42.740Z,69.57
2023-04-12T23:04:12.109Z,79.85
2023-04-12T23:06:41.583Z,75.32
2023-04-12T23:09:12.564Z,79.03
2023-04-12T23:11:41.986Z,74.20
2023-04-12T23:14:11.005Z,68.68
2023-04-12T23:16:44.144Z,75.32
2023-04-12T23:19:13.026Z,70.57
2023-04-12T23:21:41.212Z,72.85
2023-04-12T23:24:12.055Z,77.90
2023-04-12T23:26:40.398Z,66.78
2023-04-12T23:29:08.951Z,73.45
2023-04-12T23:31:37.154Z,65.07
2023-04-12T23:34:06.352Z,67.88
2023-04-12T23:36:35.072Z,72.20
2023-04-12T23:39:08.465Z,76.72
2023-04-12T23:41:40.652Z,72.40
2023-04-12T23:44:09.222Z,80.72
2023-04-12T23:46:37.426Z,75.55
2023-04-12T23:49:05.828Z,75.78
2023-04-12T23:51:34.084Z,79.82
2023-04-12T23:54:02.547Z,70.10
2023-04-12T23:56:30.678Z,70.85
2023-04-12T23:59:00.532Z,72.85
